sensor_id;sensor_type;location;lat;lon;timestamp;P1;durP1;ratioP1;P2;durP2;ratioP2
41436;SDS011;27178;49.460;10.850;2022-08-03T00:00:33;1.42;;;1.33;;
41436;SDS011;27178;49.460;10.850;2022-08-03T00:03:01;1.25;;;1.20;;
41436;SDS011;27178;49.460;10.850;2022-08-03T00:05:30;2.03;;;1.30;;
41436;SDS011;27178;49.460;10.850;2022-08-03T00:07:58;1.60;;;1.50;;
41436;SDS011;27178;49.460;10.850;2022-08-03T00:10:28;1.88;;;1.67;;
41436;SDS011;27178;49.460;10.850;2022-08-03T00:12:57;1.20;;;1.20;;
41436;SDS011;27178;49.460;10.850;2022-08-03T00:15:25;1.50;;;1.30;;
41436;SDS011;27178;49.460;10.850;2022-08-03T00:17:53;1.50;;;1.40;;
41436;SDS011;27178;49.460;10.850;2022-08-03T00:20:22;1.40;;;1.30;;
41436;SDS011;27178;49.460;10.850;2022-08-03T00:22:50;1.30;;;1.20;;
41436;SDS011;27178;49.460;10.850;2022-08-03T00:25:19;1.40;;;1.30;;
41436;SDS011;27178;49.460;10.850;2022-08-03T00:27:48;1.45;;;1.35;;
41436;SDS011;27178;49.460;10.850;2022-08-03T00:30:17;1.40;;;1.30;;
41436;SDS011;27178;49.460;10.850;2022-08-03T00:32:46;1.50;;;1.40;;
41436;SDS011;27178;49.460;10.850;2022-08-03T00:35:15;2.50;;;1.48;;
41436;SDS011;27178;49.460;10.850;2022-08-03T00:38:02;1.30;;;1.30;;
41436;SDS011;27178;49.460;10.850;2022-08-03T00:40:30;1.48;;;1.38;;
41436;SDS011;27178;49.460;10.850;2022-08-03T00:43:02;3.47;;;1.92;;
41436;SDS011;27178;49.460;10.850;2022-08-03T00:45:32;1.50;;;1.40;;
41436;SDS011;27178;49.460;10.850;2022-08-03T00:48:04;1.60;;;1.50;;
41436;SDS011;27178;49.460;10.850;2022-08-03T00:50:54;1.48;;;1.30;;
41436;SDS011;27178;49.460;10.850;2022-08-03T00:53:23;1.88;;;1.45;;
41436;SDS011;27178;49.460;10.850;2022-08-03T00:55:52;1.48;;;1.38;;
41436;SDS011;27178;49.460;10.850;2022-08-03T00:58:21;1.70;;;1.60;;
41436;SDS011;27178;49.460;10.850;2022-08-03T01:00:50;6.78;;;1.58;;
41436;SDS011;27178;49.460;10.850;2022-08-03T01:03:18;1.52;;;1.42;;
41436;SDS011;27178;49.460;10.850;2022-08-03T01:05:48;1.63;;;1.52;;
41436;SDS011;27178;49.460;10.850;2022-08-03T01:08:25;1.88;;;1.27;;
41436;SDS011;27178;49.460;10.850;2022-08-03T01:11:01;1.85;;;1.75;;
41436;SDS011;27178;49.460;10.850;2022-08-03T01:13:39;1.67;;;1.58;;
41436;SDS011;27178;49.460;10.850;2022-08-03T01:16:31;1.60;;;1.50;;
41436;SDS011;27178;49.460;10.850;2022-08-03T01:19:12;1.50;;;1.40;;
41436;SDS011;27178;49.460;10.850;2022-08-03T01:21:55;2.40;;;1.77;;
41436;SDS011;27178;49.460;10.850;2022-08-03T01:24:33;1.50;;;1.40;;
41436;SDS011;27178;49.460;10.850;2022-08-03T01:27:10;2.50;;;1.42;;
41436;SDS011;27178;49.460;10.850;2022-08-03T01:29:59;1.50;;;1.40;;
41436;SDS011;27178;49.460;10.850;2022-08-03T01:32:32;1.50;;;1.40;;
41436;SDS011;27178;49.460;10.850;2022-08-03T01:35:27;1.17;;;1.17;;
41436;SDS011;27178;49.460;10.850;2022-08-03T01:38:04;1.50;;;1.40;;
41436;SDS011;27178;49.460;10.850;2022-08-03T01:40:36;1.55;;;1.45;;
41436;SDS011;27178;49.460;10.850;2022-08-03T01:43:07;1.40;;;1.30;;
41436;SDS011;27178;49.460;10.850;2022-08-03T01:45:41;1.45;;;1.35;;
41436;SDS011;27178;49.460;10.850;2022-08-03T01:48:11;1.60;;;1.50;;
41436;SDS011;27178;49.460;10.850;2022-08-03T01:50:42;2.50;;;1.45;;
41436;SDS011;27178;49.460;10.850;2022-08-03T01:53:13;2.90;;;1.50;;
41436;SDS011;27178;49.460;10.850;2022-08-03T01:55:42;1.60;;;1.50;;
41436;SDS011;27178;49.460;10.850;2022-08-03T01:58:12;2.85;;;1.58;;
41436;SDS011;27178;49.460;10.850;2022-08-03T02:00:45;2.38;;;2.00;;
41436;SDS011;27178;49.460;10.850;2022-08-03T02:03:15;1.83;;;1.60;;
41436;SDS011;27178;49.460;10.850;2022-08-03T02:05:45;1.92;;;1.70;;
41436;SDS011;27178;49.460;10.850;2022-08-03T02:08:19;1.73;;;1.40;;
41436;SDS011;27178;49.460;10.850;2022-08-03T02:10:50;1.70;;;1.60;;
41436;SDS011;27178;49.460;10.850;2022-08-03T02:13:21;1.40;;;1.40;;
41436;SDS011;27178;49.460;10.850;2022-08-03T02:15:52;1.65;;;1.50;;
41436;SDS011;27178;49.460;10.850;2022-08-03T02:18:22;2.95;;;1.70;;
41436;SDS011;27178;49.460;10.850;2022-08-03T02:20:51;1.45;;;1.35;;
41436;SDS011;27178;49.460;10.850;2022-08-03T02:23:19;1.73;;;1.63;;
41436;SDS011;27178;49.460;10.850;2022-08-03T02:25:50;1.63;;;1.52;;
41436;SDS011;27178;49.460;10.850;2022-08-03T02:28:28;1.60;;;1.50;;
41436;SDS011;27178;49.460;10.850;2022-08-03T02:31:02;2.00;;;1.20;;
41436;SDS011;27178;49.460;10.850;2022-08-03T02:33:35;1.60;;;1.50;;
41436;SDS011;27178;49.460;10.850;2022-08-03T02:36:07;1.80;;;1.70;;
41436;SDS011;27178;49.460;10.850;2022-08-03T02:38:41;1.77;;;1.67;;
41436;SDS011;27178;49.460;10.850;2022-08-03T02:41:14;2.10;;;1.42;;
41436;SDS011;27178;49.460;10.850;2022-08-03T02:43:45;2.28;;;1.60;;
41436;SDS011;27178;49.460;10.850;2022-08-03T02:46:34;1.42;;;1.33;;
41436;SDS011;27178;49.460;10.850;2022-08-03T02:49:05;1.95;;;1.70;;
41436;SDS011;27178;49.460;10.850;2022-08-03T02:51:55;1.80;;;1.70;;
41436;SDS011;27178;49.460;10.850;2022-08-03T02:54:25;2.50;;;1.60;;
41436;SDS011;27178;49.460;10.850;2022-08-03T02:56:55;1.98;;;1.88;;
41436;SDS011;27178;49.460;10.850;2022-08-03T02:59:25;2.50;;;1.40;;
41436;SDS011;27178;49.460;10.850;2022-08-03T03:01:58;1.80;;;1.70;;
41436;SDS011;27178;49.460;10.850;2022-08-03T03:04:28;2.40;;;1.60;;
41436;SDS011;27178;49.460;10.850;2022-08-03T03:06:58;1.60;;;1.50;;
41436;SDS011;27178;49.460;10.850;2022-08-03T03:09:30;1.50;;;1.40;;
41436;SDS011;27178;49.460;10.850;2022-08-03T03:12:08;2.28;;;1.70;;
41436;SDS011;27178;49.460;10.850;2022-08-03T03:14:39;1.70;;;1.60;;
41436;SDS011;27178;49.460;10.850;2022-08-03T03:17:09;1.90;;;1.70;;
41436;SDS011;27178;49.460;10.850;2022-08-03T03:19:38;1.83;;;1.73;;
41436;SDS011;27178;49.460;10.850;2022-08-03T03:22:07;1.80;;;1.70;;
41436;SDS011;27178;49.460;10.850;2022-08-03T03:24:37;3.45;;;1.95;;
41436;SDS011;27178;49.460;10.850;2022-08-03T03:27:08;1.85;;;1.70;;
41436;SDS011;27178;49.460;10.850;2022-08-03T03:29:42;1.65;;;1.55;;
41436;SDS011;27178;49.460;10.850;2022-08-03T03:32:12;1.90;;;1.70;;
41436;SDS011;27178;49.460;10.850;2022-08-03T03:34:41;1.70;;;1.60;;
41436;SDS011;27178;49.460;10.850;2022-08-03T03:37:11;2.00;;;1.80;;
41436;SDS011;27178;49.460;10.850;2022-08-03T03:39:39;2.92;;;2.05;;
41436;SDS011;27178;49.460;10.850;2022-08-03T03:42:07;1.80;;;1.70;;
41436;SDS011;27178;49.460;10.850;2022-08-03T03:44:35;1.90;;;1.80;;
41436;SDS011;27178;49.460;10.850;2022-08-03T03:47:04;2.05;;;1.95;;
41436;SDS011;27178;49.460;10.850;2022-08-03T03:49:34;2.83;;;2.20;;
41436;SDS011;27178;49.460;10.850;2022-08-03T03:52:03;1.98;;;1.88;;
41436;SDS011;27178;49.460;10.850;2022-08-03T03:54:39;3.20;;;1.83;;
41436;SDS011;27178;49.460;10.850;2022-08-03T03:57:07;2.25;;;1.90;;
41436;SDS011;27178;49.460;10.850;2022-08-03T03:59:39;1.88;;;1.77;;
41436;SDS011;27178;49.460;10.850;2022-08-03T04:02:09;2.00;;;1.90;;
41436;SDS011;27178;49.460;10.850;2022-08-03T04:04:40;2.15;;;1.95;;
41436;SDS011;27178;49.460;10.850;2022-08-03T04:07:26;2.25;;;1.80;;
41436;SDS011;27178;49.460;10.850;2022-08-03T04:10:16;2.00;;;1.90;;
41436;SDS011;27178;49.460;10.850;2022-08-03T04:13:05;2.05;;;1.95;;
41436;SDS011;27178;49.460;10.850;2022-08-03T04:15:36;2.20;;;2.03;;
41436;SDS011;27178;49.460;10.850;2022-08-03T04:18:07;1.73;;;1.63;;
41436;SDS011;27178;49.460;10.850;2022-08-03T04:20:41;1.83;;;1.73;;
41436;SDS011;27178;49.460;10.850;2022-08-03T04:23:14;2.00;;;1.90;;
41436;SDS011;27178;49.460;10.850;2022-08-03T04:25:44;1.83;;;1.73;;
41436;SDS011;27178;49.460;10.850;2022-08-03T04:28:15;2.47;;;2.20;;
41436;SDS011;27178;49.460;10.850;2022-08-03T04:30:57;3.33;;;1.85;;
41436;SDS011;27178;49.460;10.850;2022-08-03T04:33:26;2.22;;;2.03;;
41436;SDS011;27178;49.460;10.850;2022-08-03T04:35:59;2.13;;;1.90;;
41436;SDS011;27178;49.460;10.850;2022-08-03T04:38:32;1.80;;;1.63;;
41436;SDS011;27178;49.460;10.850;2022-08-03T04:41:03;2.03;;;1.92;;
41436;SDS011;27178;49.460;10.850;2022-08-03T04:43:32;1.95;;;1.85;;
41436;SDS011;27178;49.460;10.850;2022-08-03T04:46:01;4.35;;;2.15;;
41436;SDS011;27178;49.460;10.850;2022-08-03T04:48:31;2.22;;;2.13;;
41436;SDS011;27178;49.460;10.850;2022-08-03T04:51:01;2.30;;;2.08;;
41436;SDS011;27178;49.460;10.850;2022-08-03T04:53:30;2.38;;;2.10;;
41436;SDS011;27178;49.460;10.850;2022-08-03T04:56:02;2.13;;;1.98;;
41436;SDS011;27178;49.460;10.850;2022-08-03T04:58:31;2.30;;;2.10;;
41436;SDS011;27178;49.460;10.850;2022-08-03T05:01:00;2.45;;;2.25;;
41436;SDS011;27178;49.460;10.850;2022-08-03T05:03:28;2.25;;;2.05;;
41436;SDS011;27178;49.460;10.850;2022-08-03T05:05:57;3.08;;;2.08;;
41436;SDS011;27178;49.460;10.850;2022-08-03T05:08:36;2.88;;;2.22;;
41436;SDS011;27178;49.460;10.850;2022-08-03T05:11:12;2.33;;;2.22;;
41436;SDS011;27178;49.460;10.850;2022-08-03T05:13:41;3.33;;;2.53;;
41436;SDS011;27178;49.460;10.850;2022-08-03T05:16:09;2.63;;;2.42;;
41436;SDS011;27178;49.460;10.850;2022-08-03T05:18:39;3.67;;;2.53;;
41436;SDS011;27178;49.460;10.850;2022-08-03T05:21:08;2.92;;;2.65;;
41436;SDS011;27178;49.460;10.850;2022-08-03T05:23:39;3.30;;;2.72;;
41436;SDS011;27178;49.460;10.850;2022-08-03T05:26:07;2.65;;;2.45;;
41436;SDS011;27178;49.460;10.850;2022-08-03T05:28:37;3.10;;;2.90;;
41436;SDS011;27178;49.460;10.850;2022-08-03T05:31:16;2.75;;;2.55;;
41436;SDS011;27178;49.460;10.850;2022-08-03T05:33:45;3.03;;;2.65;;
41436;SDS011;27178;49.460;10.850;2022-08-03T05:36:14;5.30;;;2.80;;
41436;SDS011;27178;49.460;10.850;2022-08-03T05:38:44;3.00;;;2.63;;
41436;SDS011;27178;49.460;10.850;2022-08-03T05:41:12;3.55;;;3.17;;
41436;SDS011;27178;49.460;10.850;2022-08-03T05:43:49;2.72;;;2.50;;
41436;SDS011;27178;49.460;10.850;2022-08-03T05:46:18;2.45;;;2.25;;
41436;SDS011;27178;49.460;10.850;2022-08-03T05:48:46;3.35;;;2.40;;
41436;SDS011;27178;49.460;10.850;2022-08-03T05:51:15;2.80;;;2.60;;
41436;SDS011;27178;49.460;10.850;2022-08-03T05:53:45;2.85;;;2.47;;
41436;SDS011;27178;49.460;10.850;2022-08-03T05:56:13;3.15;;;2.85;;
41436;SDS011;27178;49.460;10.850;2022-08-03T05:58:43;2.72;;;2.53;;
41436;SDS011;27178;49.460;10.850;2022-08-03T06:01:12;2.63;;;2.42;;
41436;SDS011;27178;49.460;10.850;2022-08-03T06:03:41;5.10;;;2.70;;
41436;SDS011;27178;49.460;10.850;2022-08-03T06:06:09;3.25;;;2.95;;
41436;SDS011;27178;49.460;10.850;2022-08-03T06:08:38;3.40;;;2.47;;
41436;SDS011;27178;49.460;10.850;2022-08-03T06:11:08;3.10;;;2.80;;
41436;SDS011;27178;49.460;10.850;2022-08-03T06:13:36;3.55;;;2.55;;
41436;SDS011;27178;49.460;10.850;2022-08-03T06:16:05;3.40;;;3.10;;
41436;SDS011;27178;49.460;10.850;2022-08-03T06:18:34;3.22;;;2.92;;
41436;SDS011;27178;49.460;10.850;2022-08-03T06:21:02;3.35;;;2.63;;
41436;SDS011;27178;49.460;10.850;2022-08-03T06:23:41;3.00;;;2.80;;
41436;SDS011;27178;49.460;10.850;2022-08-03T06:26:22;3.88;;;3.30;;
41436;SDS011;27178;49.460;10.850;2022-08-03T06:28:51;2.78;;;2.58;;
41436;SDS011;27178;49.460;10.850;2022-08-03T06:31:21;3.38;;;2.75;;
41436;SDS011;27178;49.460;10.850;2022-08-03T06:33:59;3.00;;;2.80;;
41436;SDS011;27178;49.460;10.850;2022-08-03T06:36:48;2.95;;;2.75;;
41436;SDS011;27178;49.460;10.850;2022-08-03T06:39:18;4.18;;;2.97;;
41436;SDS011;27178;49.460;10.850;2022-08-03T06:41:50;3.03;;;2.83;;
41436;SDS011;27178;49.460;10.850;2022-08-03T06:44:19;3.30;;;2.92;;
41436;SDS011;27178;49.460;10.850;2022-08-03T06:46:47;3.03;;;2.83;;
41436;SDS011;27178;49.460;10.850;2022-08-03T06:49:16;6.30;;;3.00;;
41436;SDS011;27178;49.460;10.850;2022-08-03T06:51:45;2.58;;;2.38;;
41436;SDS011;27178;49.460;10.850;2022-08-03T06:54:32;2.40;;;2.20;;
41436;SDS011;27178;49.460;10.850;2022-08-03T06:57:04;2.72;;;2.53;;
41436;SDS011;27178;49.460;10.850;2022-08-03T06:59:33;2.92;;;2.47;;
41436;SDS011;27178;49.460;10.850;2022-08-03T07:02:21;3.53;;;2.67;;
41436;SDS011;27178;49.460;10.850;2022-08-03T07:04:53;2.53;;;2.33;;
41436;SDS011;27178;49.460;10.850;2022-08-03T07:07:22;3.80;;;2.20;;
41436;SDS011;27178;49.460;10.850;2022-08-03T07:09:50;3.75;;;2.65;;
41436;SDS011;27178;49.460;10.850;2022-08-03T07:12:24;3.60;;;2.90;;
41436;SDS011;27178;49.460;10.850;2022-08-03T07:14:53;11.70;;;2.80;;
41436;SDS011;27178;49.460;10.850;2022-08-03T07:17:26;3.85;;;2.63;;
41436;SDS011;27178;49.460;10.850;2022-08-03T07:19:55;3.85;;;2.38;;
41436;SDS011;27178;49.460;10.850;2022-08-03T07:22:24;2.40;;;2.20;;
41436;SDS011;27178;49.460;10.850;2022-08-03T07:24:52;2.55;;;2.35;;
41436;SDS011;27178;49.460;10.850;2022-08-03T07:27:20;2.95;;;2.40;;
41436;SDS011;27178;49.460;10.850;2022-08-03T07:29:50;2.50;;;2.30;;
41436;SDS011;27178;49.460;10.850;2022-08-03T07:32:18;2.60;;;2.40;;
41436;SDS011;27178;49.460;10.850;2022-08-03T07:34:46;2.25;;;2.05;;
41436;SDS011;27178;49.460;10.850;2022-08-03T07:37:15;2.88;;;2.40;;
41436;SDS011;27178;49.460;10.850;2022-08-03T07:39:43;3.40;;;2.20;;
41436;SDS011;27178;49.460;10.850;2022-08-03T07:42:12;3.15;;;2.28;;
41436;SDS011;27178;49.460;10.850;2022-08-03T07:44:41;3.65;;;2.30;;
41436;SDS011;27178;49.460;10.850;2022-08-03T07:47:10;2.88;;;2.67;;
41436;SDS011;27178;49.460;10.850;2022-08-03T07:49:48;2.33;;;2.13;;
41436;SDS011;27178;49.460;10.850;2022-08-03T07:52:16;4.93;;;2.50;;
41436;SDS011;27178;49.460;10.850;2022-08-03T07:55:03;3.42;;;1.90;;
41436;SDS011;27178;49.460;10.850;2022-08-03T07:57:31;2.22;;;2.03;;
41436;SDS011;27178;49.460;10.850;2022-08-03T08:00:01;2.42;;;2.22;;
41436;SDS011;27178;49.460;10.850;2022-08-03T08:02:36;3.47;;;1.90;;
41436;SDS011;27178;49.460;10.850;2022-08-03T08:05:05;2.05;;;1.90;;
41436;SDS011;27178;49.460;10.850;2022-08-03T08:07:34;5.70;;;2.25;;
41436;SDS011;27178;49.460;10.850;2022-08-03T08:10:06;3.33;;;2.20;;
41436;SDS011;27178;49.460;10.850;2022-08-03T08:12:36;2.63;;;2.28;;
41436;SDS011;27178;49.460;10.850;2022-08-03T08:15:06;4.65;;;2.70;;
41436;SDS011;27178;49.460;10.850;2022-08-03T08:17:43;2.78;;;2.30;;
41436;SDS011;27178;49.460;10.850;2022-08-03T08:20:15;2.63;;;2.17;;
41436;SDS011;27178;49.460;10.850;2022-08-03T08:22:56;2.30;;;2.10;;
41436;SDS011;27178;49.460;10.850;2022-08-03T08:25:27;3.33;;;2.40;;
41436;SDS011;27178;49.460;10.850;2022-08-03T08:27:56;2.10;;;1.90;;
41436;SDS011;27178;49.460;10.850;2022-08-03T08:30:47;2.80;;;2.10;;
41436;SDS011;27178;49.460;10.850;2022-08-03T08:33:18;4.85;;;2.20;;
41436;SDS011;27178;49.460;10.850;2022-08-03T08:35:49;2.38;;;2.17;;
41436;SDS011;27178;49.460;10.850;2022-08-03T08:38:19;1.90;;;1.80;;
41436;SDS011;27178;49.460;10.850;2022-08-03T08:40:47;4.60;;;2.40;;
41436;SDS011;27178;49.460;10.850;2022-08-03T08:43:16;2.83;;;1.90;;
41436;SDS011;27178;49.460;10.850;2022-08-03T08:45:45;2.25;;;2.00;;
41436;SDS011;27178;49.460;10.850;2022-08-03T08:48:17;2.47;;;2.20;;
41436;SDS011;27178;49.460;10.850;2022-08-03T08:50:51;3.67;;;2.13;;
41436;SDS011;27178;49.460;10.850;2022-08-03T08:53:19;2.67;;;1.90;;
41436;SDS011;27178;49.460;10.850;2022-08-03T08:55:52;2.55;;;2.35;;
41436;SDS011;27178;49.460;10.850;2022-08-03T08:58:27;2.00;;;1.88;;
41436;SDS011;27178;49.460;10.850;2022-08-03T09:00:57;2.05;;;1.92;;
41436;SDS011;27178;49.460;10.850;2022-08-03T09:03:28;2.95;;;2.05;;
41436;SDS011;27178;49.460;10.850;2022-08-03T09:05:58;2.78;;;2.08;;
41436;SDS011;27178;49.460;10.850;2022-08-03T09:08:28;5.47;;;1.80;;
41436;SDS011;27178;49.460;10.850;2022-08-03T09:10:57;3.58;;;1.73;;
41436;SDS011;27178;49.460;10.850;2022-08-03T09:13:26;1.88;;;1.77;;
41436;SDS011;27178;49.460;10.850;2022-08-03T09:16:08;1.65;;;1.55;;
41436;SDS011;27178;49.460;10.850;2022-08-03T09:18:40;1.60;;;1.50;;
41436;SDS011;27178;49.460;10.850;2022-08-03T09:21:12;1.70;;;1.60;;
41436;SDS011;27178;49.460;10.850;2022-08-03T09:24:01;2.00;;;1.90;;
41436;SDS011;27178;49.460;10.850;2022-08-03T09:26:34;1.83;;;1.73;;
41436;SDS011;27178;49.460;10.850;2022-08-03T09:29:04;3.03;;;2.00;;
41436;SDS011;27178;49.460;10.850;2022-08-03T09:31:40;2.85;;;1.88;;
41436;SDS011;27178;49.460;10.850;2022-08-03T09:34:13;1.75;;;1.65;;
41436;SDS011;27178;49.460;10.850;2022-08-03T09:36:43;2.00;;;1.80;;
41436;SDS011;27178;49.460;10.850;2022-08-03T09:39:13;1.88;;;1.77;;
41436;SDS011;27178;49.460;10.850;2022-08-03T09:41:43;1.90;;;1.75;;
41436;SDS011;27178;49.460;10.850;2022-08-03T09:44:13;1.83;;;1.73;;
41436;SDS011;27178;49.460;10.850;2022-08-03T09:46:52;2.65;;;1.80;;
41436;SDS011;27178;49.460;10.850;2022-08-03T09:49:24;3.05;;;1.80;;
41436;SDS011;27178;49.460;10.850;2022-08-03T09:51:52;1.80;;;1.70;;
41436;SDS011;27178;49.460;10.850;2022-08-03T09:54:41;2.00;;;1.90;;
41436;SDS011;27178;49.460;10.850;2022-08-03T09:57:19;1.95;;;1.83;;
41436;SDS011;27178;49.460;10.850;2022-08-03T09:59:49;1.73;;;1.63;;
41436;SDS011;27178;49.460;10.850;2022-08-03T10:02:31;1.70;;;1.60;;
41436;SDS011;27178;49.460;10.850;2022-08-03T10:05:01;2.22;;;2.08;;
41436;SDS011;27178;49.460;10.850;2022-08-03T10:07:29;3.58;;;1.70;;
41436;SDS011;27178;49.460;10.850;2022-08-03T10:10:11;2.78;;;1.75;;
41436;SDS011;27178;49.460;10.850;2022-08-03T10:12:57;1.70;;;1.60;;
41436;SDS011;27178;49.460;10.850;2022-08-03T10:15:26;1.80;;;1.70;;
41436;SDS011;27178;49.460;10.850;2022-08-03T10:18:15;1.77;;;1.67;;
41436;SDS011;27178;49.460;10.850;2022-08-03T10:20:48;1.98;;;1.80;;
41436;SDS011;27178;49.460;10.850;2022-08-03T10:23:18;1.88;;;1.77;;
41436;SDS011;27178;49.460;10.850;2022-08-03T10:25:52;1.63;;;1.52;;
41436;SDS011;27178;49.460;10.850;2022-08-03T10:28:25;1.60;;;1.50;;
41436;SDS011;27178;49.460;10.850;2022-08-03T10:31:04;1.80;;;1.70;;
41436;SDS011;27178;49.460;10.850;2022-08-03T10:33:36;1.75;;;1.65;;
41436;SDS011;27178;49.460;10.850;2022-08-03T10:36:19;2.47;;;1.88;;
41436;SDS011;27178;49.460;10.850;2022-08-03T10:38:51;2.58;;;1.48;;
41436;SDS011;27178;49.460;10.850;2022-08-03T10:41:19;1.88;;;1.77;;
41436;SDS011;27178;49.460;10.850;2022-08-03T10:43:50;1.75;;;1.65;;
41436;SDS011;27178;49.460;10.850;2022-08-03T10:46:23;1.75;;;1.65;;
41436;SDS011;27178;49.460;10.850;2022-08-03T10:48:53;1.80;;;1.70;;
41436;SDS011;27178;49.460;10.850;2022-08-03T10:51:24;1.50;;;1.40;;
41436;SDS011;27178;49.460;10.850;2022-08-03T10:53:57;1.85;;;1.75;;
41436;SDS011;27178;49.460;10.850;2022-08-03T10:56:36;2.28;;;2.08;;
41436;SDS011;27178;49.460;10.850;2022-08-03T11:05:42;2.33;;;2.17;;
41436;SDS011;27178;49.460;10.850;2022-08-03T11:13:56;1.85;;;1.73;;
41436;SDS011;27178;49.460;10.850;2022-08-03T11:16:26;2.28;;;2.13;;
41436;SDS011;27178;49.460;10.850;2022-08-03T11:18:55;5.65;;;1.65;;
41436;SDS011;27178;49.460;10.850;2022-08-03T11:27:26;1.73;;;1.63;;
41436;SDS011;27178;49.460;10.850;2022-08-03T11:29:56;1.73;;;1.63;;
41436;SDS011;27178;49.460;10.850;2022-08-03T11:35:32;2.00;;;1.67;;
41436;SDS011;27178;49.460;10.850;2022-08-03T11:38:02;1.67;;;1.58;;
41436;SDS011;27178;49.460;10.850;2022-08-03T11:40:34;1.60;;;1.50;;
41436;SDS011;27178;49.460;10.850;2022-08-03T11:43:06;1.70;;;1.60;;
41436;SDS011;27178;49.460;10.850;2022-08-03T11:45:35;1.95;;;1.50;;
41436;SDS011;27178;49.460;10.850;2022-08-03T11:48:15;1.63;;;1.50;;
41436;SDS011;27178;49.460;10.850;2022-08-03T11:50:43;1.80;;;1.70;;
41436;SDS011;27178;49.460;10.850;2022-08-03T11:53:15;2.42;;;1.42;;
41436;SDS011;27178;49.460;10.850;2022-08-03T11:55:46;1.45;;;1.35;;
41436;SDS011;27178;49.460;10.850;2022-08-03T11:58:16;1.88;;;1.30;;
41436;SDS011;27178;49.460;10.850;2022-08-03T12:01:06;1.40;;;1.30;;
41436;SDS011;27178;49.460;10.850;2022-08-03T12:03:37;1.10;;;1.10;;
41436;SDS011;27178;49.460;10.850;2022-08-03T12:06:07;1.35;;;1.25;;
41436;SDS011;27178;49.460;10.850;2022-08-03T12:08:37;1.27;;;1.20;;
41436;SDS011;27178;49.460;10.850;2022-08-03T12:11:07;1.55;;;1.15;;
41436;SDS011;27178;49.460;10.850;2022-08-03T12:13:38;1.20;;;1.10;;
41436;SDS011;27178;49.460;10.850;2022-08-03T12:16:27;0.90;;;0.90;;
41436;SDS011;27178;49.460;10.850;2022-08-03T12:18:56;1.80;;;1.20;;
41436;SDS011;27178;49.460;10.850;2022-08-03T12:21:26;1.20;;;1.10;;
41436;SDS011;27178;49.460;10.850;2022-08-03T12:23:55;0.98;;;0.98;;
41436;SDS011;27178;49.460;10.850;2022-08-03T12:26:27;1.30;;;1.20;;
41436;SDS011;27178;49.460;10.850;2022-08-03T12:28:56;1.05;;;0.95;;
41436;SDS011;27178;49.460;10.850;2022-08-03T12:31:24;0.93;;;0.93;;
41436;SDS011;27178;49.460;10.850;2022-08-03T12:33:53;0.80;;;0.80;;
41436;SDS011;27178;49.460;10.850;2022-08-03T12:36:24;1.88;;;1.38;;
41436;SDS011;27178;49.460;10.850;2022-08-03T12:38:56;0.90;;;0.90;;
41436;SDS011;27178;49.460;10.850;2022-08-03T12:41:27;3.38;;;2.15;;
41436;SDS011;27178;49.460;10.850;2022-08-03T12:43:59;2.35;;;2.25;;
41436;SDS011;27178;49.460;10.850;2022-08-03T12:46:29;3.08;;;2.80;;
41436;SDS011;27178;49.460;10.850;2022-08-03T12:49:00;2.42;;;2.33;;
41436;SDS011;27178;49.460;10.850;2022-08-03T12:51:34;2.60;;;2.40;;
41436;SDS011;27178;49.460;10.850;2022-08-03T12:54:03;1.73;;;1.63;;
41436;SDS011;27178;49.460;10.850;2022-08-03T12:56:34;1.50;;;1.40;;
41436;SDS011;27178;49.460;10.850;2022-08-03T13:02:00;1.48;;;1.35;;
41436;SDS011;27178;49.460;10.850;2022-08-03T13:04:35;1.17;;;1.15;;
41436;SDS011;27178;49.460;10.850;2022-08-03T13:07:04;2.35;;;1.13;;
41436;SDS011;27178;49.460;10.850;2022-08-03T13:09:43;0.95;;;0.95;;
41436;SDS011;27178;49.460;10.850;2022-08-03T13:12:14;0.80;;;0.80;;
41436;SDS011;27178;49.460;10.850;2022-08-03T13:14:44;1.17;;;1.17;;
41436;SDS011;27178;49.460;10.850;2022-08-03T13:17:13;1.63;;;1.00;;
41436;SDS011;27178;49.460;10.850;2022-08-03T13:19:44;1.83;;;1.20;;
41436;SDS011;27178;49.460;10.850;2022-08-03T13:22:13;0.90;;;0.90;;
41436;SDS011;27178;49.460;10.850;2022-08-03T13:24:44;0.80;;;0.70;;
41436;SDS011;27178;49.460;10.850;2022-08-03T13:27:15;1.13;;;1.00;;
41436;SDS011;27178;49.460;10.850;2022-08-03T13:30:04;1.98;;;0.85;;
41436;SDS011;27178;49.460;10.850;2022-08-03T13:32:34;1.10;;;1.10;;
41436;SDS011;27178;49.460;10.850;2022-08-03T13:35:03;1.27;;;1.17;;
41436;SDS011;27178;49.460;10.850;2022-08-03T13:37:32;1.30;;;1.30;;
41436;SDS011;27178;49.460;10.850;2022-08-03T13:40:02;0.65;;;0.65;;
41436;SDS011;27178;49.460;10.850;2022-08-03T13:42:34;1.15;;;0.75;;
41436;SDS011;27178;49.460;10.850;2022-08-03T13:45:04;1.08;;;1.08;;
41436;SDS011;27178;49.460;10.850;2022-08-03T13:47:34;0.80;;;0.80;;
41436;SDS011;27178;49.460;10.850;2022-08-03T13:50:03;0.70;;;0.70;;
41436;SDS011;27178;49.460;10.850;2022-08-03T13:52:32;0.90;;;0.90;;
41436;SDS011;27178;49.460;10.850;2022-08-03T13:55:03;2.05;;;1.00;;
41436;SDS011;27178;49.460;10.850;2022-08-03T13:57:34;0.82;;;0.77;;
41436;SDS011;27178;49.460;10.850;2022-08-03T14:00:22;1.15;;;1.08;;
41436;SDS011;27178;49.460;10.850;2022-08-03T14:02:55;0.70;;;0.70;;
41436;SDS011;27178;49.460;10.850;2022-08-03T14:05:40;1.20;;;1.05;;
41436;SDS011;27178;49.460;10.850;2022-08-03T14:08:09;1.85;;;1.02;;
41436;SDS011;27178;49.460;10.850;2022-08-03T14:10:41;1.05;;;1.05;;
41436;SDS011;27178;49.460;10.850;2022-08-03T14:13:12;1.00;;;1.00;;
41436;SDS011;27178;49.460;10.850;2022-08-03T14:15:43;1.15;;;1.08;;
41436;SDS011;27178;49.460;10.850;2022-08-03T14:18:16;0.55;;;0.55;;
41436;SDS011;27178;49.460;10.850;2022-08-03T14:20:59;0.98;;;0.98;;
41436;SDS011;27178;49.460;10.850;2022-08-03T14:23:31;1.48;;;1.10;;
41436;SDS011;27178;49.460;10.850;2022-08-03T14:26:00;1.23;;;0.85;;
41436;SDS011;27178;49.460;10.850;2022-08-03T14:28:30;0.60;;;0.60;;
41436;SDS011;27178;49.460;10.850;2022-08-03T14:30:59;1.42;;;1.00;;
41436;SDS011;27178;49.460;10.850;2022-08-03T14:33:28;2.33;;;1.23;;
41436;SDS011;27178;49.460;10.850;2022-08-03T14:35:56;0.90;;;0.80;;
41436;SDS011;27178;49.460;10.850;2022-08-03T14:38:25;1.15;;;1.00;;
41436;SDS011;27178;49.460;10.850;2022-08-03T14:40:53;1.08;;;0.82;;
41436;SDS011;27178;49.460;10.850;2022-08-03T14:43:22;0.90;;;0.85;;
41436;SDS011;27178;49.460;10.850;2022-08-03T14:45:51;1.08;;;1.00;;
41436;SDS011;27178;49.460;10.850;2022-08-03T14:48:21;3.70;;;1.00;;
41436;SDS011;27178;49.460;10.850;2022-08-03T14:51:10;0.93;;;0.88;;
41436;SDS011;27178;49.460;10.850;2022-08-03T14:53:39;0.85;;;0.85;;
41436;SDS011;27178;49.460;10.850;2022-08-03T14:56:07;1.58;;;1.40;;
41436;SDS011;27178;49.460;10.850;2022-08-03T14:58:36;2.83;;;1.80;;
41436;SDS011;27178;49.460;10.850;2022-08-03T15:01:07;1.77;;;1.52;;
41436;SDS011;27178;49.460;10.850;2022-08-03T15:03:55;3.08;;;1.65;;
41436;SDS011;27178;49.460;10.850;2022-08-03T15:06:23;2.08;;;1.20;;
41436;SDS011;27178;49.460;10.850;2022-08-03T15:08:51;1.50;;;1.30;;
41436;SDS011;27178;49.460;10.850;2022-08-03T15:11:40;1.25;;;1.15;;
41436;SDS011;27178;49.460;10.850;2022-08-03T15:14:09;1.50;;;1.05;;
41436;SDS011;27178;49.460;10.850;2022-08-03T15:16:41;1.27;;;0.88;;
41436;SDS011;27178;49.460;10.850;2022-08-03T15:19:09;1.90;;;1.27;;
41436;SDS011;27178;49.460;10.850;2022-08-03T15:21:57;1.27;;;1.17;;
41436;SDS011;27178;49.460;10.850;2022-08-03T15:24:27;1.60;;;1.50;;
41436;SDS011;27178;49.460;10.850;2022-08-03T15:26:55;1.42;;;1.33;;